Aklavik, Northwest Territories

10:25 PM MDT on October 01, 2014 (GMT -0600)
Zubko | Change Station
CLOSE
Current Station
Airport
Location: Inuvik,
Elevation: 223 ft
Nearby Weather Stations

Elev 223 ft 68.31 °N, 133.50 °W | Updated 25 minutes ago

Mostly Cloudy
Mostly Cloudy
34 °F
Feels Like 31 °F
N
4
Wind Variable Wind from SE

Tomorrow is forecast to be nearly the same temperature as today.

Today
High -- | Low -- °F
--% Chance of Precip.
Yesterday
High -- | Low -- °F
Precip. -- in
9:13 AM 8:23 PM
First Quarter, 54% visible
Pressure 30.07 in
Visibility 15.0 miles
Clouds Mostly Cloudy 10000 ft
Mostly Cloudy 20000 ft
Windchill 31 °F
Dew Point 28 °F
Humidity 81%
Rainfall 0.00 in
Snow Depth Not available.
UV 0 out of 12
Pollen Not available.
Air Quality Not available.
Flu Activity Not available.
METAR CYEV 020400Z 13003KT 090V170 15SM BKN100 BKN200 01/M02 A3005 RMK AC5CI1 SLP181

More Conditions Fewer Conditions

Pressure 30.07 in
Visibility 15.0 miles
Clouds Mostly Cloudy 10000 ft
Mostly Cloudy 20000 ft
Windchill 31 °F
Dew Point 28 °F
Humidity 81%
Rainfall 0.00 in
Snow Depth Not available.
UV 0 out of 12
Pollen Not available.
Air Quality Not available.
Flu Activity Not available.
METAR CYEV 020400Z 13003KT 090V170 15SM BKN100 BKN200 01/M02 A3005 RMK AC5CI1 SLP181

More Conditions Fewer Conditions

10-Day Weather Forecast

Almanac

Astronomy

Oct. 01, 2014 Rise Set
Actual Time 9:13 AM MDT 8:23 PM MDT
Civil Twilight 8:17 AM MDT 9:19 PM MDT
Nautical Twilight 7:10 AM MDT 10:25 PM MDT
Astronomical Twilight 5:54 AM MDT 11:40 PM MDT
Moon 6:41 PM MDT (10/1) 11:48 PM MDT (10/1)
Length of Visible Light 13h 01m
Length of Day
11h 09m
Tomorrow will be 7m 49s shorter.
First Quarter, 54% of the Moon is Illuminated
Oct 2
First Quarter
Oct 8
Full
Oct 15
Last Quarter
Oct 23
New
Oct 30
First Quarter

Today's Extremes

Country Highs Country Lows

Community

WunderPhotos

Upload Photos

1,758,186 photos uploaded!

Nearby

Snow Depth

Not available.

Earthquake Activity

City Distance Mag. Time & Date
No recent earthquake activity has been reported nearby.
Minimum magnitude displayed is 2.5.

Coastal Water Temperatures

Place Temperature
No Stations Reporting

Nearby Weather Stations